sensor_id;sensor_type;location;lat;lon;timestamp;temperature;humidity
52943;DHT22;38809;53.300;6.614;2023-02-11T00:02:02;5.90;99.90
52943;DHT22;38809;53.300;6.614;2023-02-11T00:04:30;6.00;99.90
52943;DHT22;38809;53.300;6.614;2023-02-11T00:06:56;6.10;99.90
52943;DHT22;38809;53.300;6.614;2023-02-11T00:09:21;6.00;99.90
52943;DHT22;38809;53.300;6.614;2023-02-11T00:11:47;6.00;99.90
52943;DHT22;38809;53.300;6.614;2023-02-11T00:14:13;6.00;99.90
52943;DHT22;38809;53.300;6.614;2023-02-11T00:16:38;6.10;99.90
52943;DHT22;38809;53.300;6.614;2023-02-11T00:19:04;6.10;99.90
52943;DHT22;38809;53.300;6.614;2023-02-11T00:21:31;6.00;99.90
52943;DHT22;38809;53.300;6.614;2023-02-11T00:23:59;5.90;99.90
52943;DHT22;38809;53.300;6.614;2023-02-11T00:26:34;6.00;99.90
52943;DHT22;38809;53.300;6.614;2023-02-11T00:29:00;5.90;99.90
52943;DHT22;38809;53.300;6.614;2023-02-11T00:31:27;6.10;99.90
52943;DHT22;38809;53.300;6.614;2023-02-11T00:33:53;6.00;99.90
52943;DHT22;38809;53.300;6.614;2023-02-11T00:36:24;6.10;99.90
52943;DHT22;38809;53.300;6.614;2023-02-11T00:38:51;6.00;99.90
52943;DHT22;38809;53.300;6.614;2023-02-11T00:41:18;4.40;99.90
52943;DHT22;38809;53.300;6.614;2023-02-11T00:43:44;6.00;99.90
52943;DHT22;38809;53.300;6.614;2023-02-11T00:46:10;6.00;99.90
52943;DHT22;38809;53.300;6.614;2023-02-11T00:48:36;6.10;99.90
52943;DHT22;38809;53.300;6.614;2023-02-11T00:51:02;6.00;99.90
52943;DHT22;38809;53.300;6.614;2023-02-11T00:53:28;6.20;99.90
52943;DHT22;38809;53.300;6.614;2023-02-11T00:55:54;6.30;99.90
52943;DHT22;38809;53.300;6.614;2023-02-11T00:58:20;6.20;99.90
52943;DHT22;38809;53.300;6.614;2023-02-11T01:00:47;6.10;99.90
52943;DHT22;38809;53.300;6.614;2023-02-11T01:03:13;6.30;99.90
52943;DHT22;38809;53.300;6.614;2023-02-11T01:05:39;6.10;99.90
52943;DHT22;38809;53.300;6.614;2023-02-11T01:08:04;6.40;99.90
52943;DHT22;38809;53.300;6.614;2023-02-11T01:10:30;6.30;99.90
52943;DHT22;38809;53.300;6.614;2023-02-11T01:12:56;6.30;99.90
52943;DHT22;38809;53.300;6.614;2023-02-11T01:15:22;6.20;99.90
52943;DHT22;38809;53.300;6.614;2023-02-11T01:17:48;6.30;99.90
52943;DHT22;38809;53.300;6.614;2023-02-11T01:20:16;6.40;99.90
52943;DHT22;38809;53.300;6.614;2023-02-11T01:22:42;6.10;99.90
52943;DHT22;38809;53.300;6.614;2023-02-11T01:25:08;6.30;99.90
52943;DHT22;38809;53.300;6.614;2023-02-11T01:27:34;6.60;99.90
52943;DHT22;38809;53.300;6.614;2023-02-11T01:30:01;6.60;99.90
52943;DHT22;38809;53.300;6.614;2023-02-11T01:32:26;6.30;99.90
52943;DHT22;38809;53.300;6.614;2023-02-11T01:34:52;6.10;99.90
52943;DHT22;38809;53.300;6.614;2023-02-11T01:37:18;6.10;99.90
52943;DHT22;38809;53.300;6.614;2023-02-11T01:39:44;6.10;99.90
52943;DHT22;38809;53.300;6.614;2023-02-11T01:42:21;6.10;99.90
52943;DHT22;38809;53.300;6.614;2023-02-11T01:44:52;6.10;99.90
52943;DHT22;38809;53.300;6.614;2023-02-11T01:47:19;7.50;99.90
52943;DHT22;38809;53.300;6.614;2023-02-11T01:49:48;6.70;99.90
52943;DHT22;38809;53.300;6.614;2023-02-11T01:52:35;6.70;99.90
52943;DHT22;38809;53.300;6.614;2023-02-11T01:55:05;6.10;99.90
52943;DHT22;38809;53.300;6.614;2023-02-11T01:57:53;6.10;99.90
52943;DHT22;38809;53.300;6.614;2023-02-11T02:00:41;6.30;99.90
52943;DHT22;38809;53.300;6.614;2023-02-11T02:03:16;6.10;99.90
52943;DHT22;38809;53.300;6.614;2023-02-11T02:06:28;6.20;99.90
52943;DHT22;38809;53.300;6.614;2023-02-11T02:09:00;6.30;99.90
52943;DHT22;38809;53.300;6.614;2023-02-11T02:11:27;6.30;99.90
52943;DHT22;38809;53.300;6.614;2023-02-11T02:13:53;6.10;99.90
52943;DHT22;38809;53.300;6.614;2023-02-11T02:16:20;6.30;99.90
52943;DHT22;38809;53.300;6.614;2023-02-11T02:27:24;6.60;99.90
52943;DHT22;38809;53.300;6.614;2023-02-11T02:29:56;6.30;99.90
52943;DHT22;38809;53.300;6.614;2023-02-11T02:40:33;6.20;99.90
52943;DHT22;38809;53.300;6.614;2023-02-11T02:43:02;6.30;99.90
52943;DHT22;38809;53.300;6.614;2023-02-11T02:45:28;6.30;99.90
52943;DHT22;38809;53.300;6.614;2023-02-11T02:47:54;6.10;99.90
52943;DHT22;38809;53.300;6.614;2023-02-11T02:50:26;6.20;99.90
52943;DHT22;38809;53.300;6.614;2023-02-11T02:53:02;6.10;99.90
52943;DHT22;38809;53.300;6.614;2023-02-11T03:11:28;6.20;99.90
52943;DHT22;38809;53.300;6.614;2023-02-11T03:13:54;6.30;99.90
52943;DHT22;38809;53.300;6.614;2023-02-11T03:16:26;6.20;99.90
52943;DHT22;38809;53.300;6.614;2023-02-11T03:21:42;6.20;99.90
52943;DHT22;38809;53.300;6.614;2023-02-11T03:24:27;6.80;99.90
52943;DHT22;38809;53.300;6.614;2023-02-11T03:26:57;6.40;99.90
52943;DHT22;38809;53.300;6.614;2023-02-11T03:29:40;6.20;99.90
52943;DHT22;38809;53.300;6.614;2023-02-11T03:34:59;6.30;99.90
52943;DHT22;38809;53.300;6.614;2023-02-11T03:37:44;7.00;99.90
52943;DHT22;38809;53.300;6.614;2023-02-11T03:40:37;6.60;99.90
52943;DHT22;38809;53.300;6.614;2023-02-11T03:43:34;6.40;99.90
52943;DHT22;38809;53.300;6.614;2023-02-11T03:46:01;6.60;99.90
52943;DHT22;38809;53.300;6.614;2023-02-11T03:48:35;6.30;99.90
52943;DHT22;38809;53.300;6.614;2023-02-11T03:51:07;6.40;99.90
52943;DHT22;38809;53.300;6.614;2023-02-11T03:53:34;6.40;99.90
52943;DHT22;38809;53.300;6.614;2023-02-11T03:56:04;6.50;99.90
52943;DHT22;38809;53.300;6.614;2023-02-11T03:58:31;6.50;99.90
52943;DHT22;38809;53.300;6.614;2023-02-11T04:00:56;6.60;99.90
52943;DHT22;38809;53.300;6.614;2023-02-11T04:03:22;6.50;99.90
52943;DHT22;38809;53.300;6.614;2023-02-11T04:05:48;6.70;99.90
52943;DHT22;38809;53.300;6.614;2023-02-11T04:08:13;6.50;99.90
52943;DHT22;38809;53.300;6.614;2023-02-11T04:10:39;6.60;99.90
52943;DHT22;38809;53.300;6.614;2023-02-11T04:13:05;6.70;99.90
52943;DHT22;38809;53.300;6.614;2023-02-11T04:15:31;6.50;99.90
52943;DHT22;38809;53.300;6.614;2023-02-11T04:17:57;6.60;99.90
52943;DHT22;38809;53.300;6.614;2023-02-11T04:20:22;6.80;99.90
52943;DHT22;38809;53.300;6.614;2023-02-11T04:22:48;6.60;99.90
52943;DHT22;38809;53.300;6.614;2023-02-11T04:25:14;6.50;99.90
52943;DHT22;38809;53.300;6.614;2023-02-11T04:27:40;6.80;99.90
52943;DHT22;38809;53.300;6.614;2023-02-11T04:30:07;6.70;99.90
52943;DHT22;38809;53.300;6.614;2023-02-11T04:32:33;6.80;99.90
52943;DHT22;38809;53.300;6.614;2023-02-11T04:34:59;6.80;99.90
52943;DHT22;38809;53.300;6.614;2023-02-11T04:37:24;6.70;99.90
52943;DHT22;38809;53.300;6.614;2023-02-11T04:39:50;6.90;99.90
52943;DHT22;38809;53.300;6.614;2023-02-11T04:42:16;6.90;99.90
52943;DHT22;38809;53.300;6.614;2023-02-11T04:44:41;6.80;99.90
52943;DHT22;38809;53.300;6.614;2023-02-11T04:47:07;7.00;99.90
52943;DHT22;38809;53.300;6.614;2023-02-11T04:49:33;6.90;99.90
52943;DHT22;38809;53.300;6.614;2023-02-11T04:51:59;7.50;99.90
52943;DHT22;38809;53.300;6.614;2023-02-11T04:54:24;7.20;99.90
52943;DHT22;38809;53.300;6.614;2023-02-11T04:56:50;6.90;99.90
52943;DHT22;38809;53.300;6.614;2023-02-11T04:59:15;7.50;99.90
52943;DHT22;38809;53.300;6.614;2023-02-11T05:01:41;7.10;99.90
52943;DHT22;38809;53.300;6.614;2023-02-11T05:04:07;7.10;99.90
52943;DHT22;38809;53.300;6.614;2023-02-11T05:06:33;7.10;99.90
52943;DHT22;38809;53.300;6.614;2023-02-11T05:08:58;7.10;99.90
52943;DHT22;38809;53.300;6.614;2023-02-11T05:11:25;7.20;99.90
52943;DHT22;38809;53.300;6.614;2023-02-11T05:13:51;7.20;99.90
52943;DHT22;38809;53.300;6.614;2023-02-11T05:16:17;7.30;99.90
52943;DHT22;38809;53.300;6.614;2023-02-11T05:18:44;7.10;99.90
52943;DHT22;38809;53.300;6.614;2023-02-11T05:21:12;7.10;99.90
52943;DHT22;38809;53.300;6.614;2023-02-11T05:23:39;7.10;99.90
52943;DHT22;38809;53.300;6.614;2023-02-11T05:26:05;7.30;99.90
52943;DHT22;38809;53.300;6.614;2023-02-11T05:28:31;7.30;99.90
52943;DHT22;38809;53.300;6.614;2023-02-11T05:30:57;7.10;99.90
52943;DHT22;38809;53.300;6.614;2023-02-11T05:33:23;7.00;99.90
52943;DHT22;38809;53.300;6.614;2023-02-11T05:35:49;7.00;99.90
52943;DHT22;38809;53.300;6.614;2023-02-11T05:38:15;7.00;99.90
52943;DHT22;38809;53.300;6.614;2023-02-11T05:40:41;7.00;99.90
52943;DHT22;38809;53.300;6.614;2023-02-11T05:43:07;7.20;99.90
52943;DHT22;38809;53.300;6.614;2023-02-11T05:45:33;7.00;99.90
52943;DHT22;38809;53.300;6.614;2023-02-11T05:47:59;7.30;99.90
52943;DHT22;38809;53.300;6.614;2023-02-11T05:50:25;7.10;99.90
52943;DHT22;38809;53.300;6.614;2023-02-11T05:52:51;7.50;99.90
52943;DHT22;38809;53.300;6.614;2023-02-11T05:55:16;7.00;99.90
52943;DHT22;38809;53.300;6.614;2023-02-11T05:57:42;6.90;99.90
52943;DHT22;38809;53.300;6.614;2023-02-11T06:00:08;7.10;99.90
52943;DHT22;38809;53.300;6.614;2023-02-11T06:02:34;6.90;99.90
52943;DHT22;38809;53.300;6.614;2023-02-11T06:05:00;7.10;99.90
52943;DHT22;38809;53.300;6.614;2023-02-11T06:07:26;7.40;99.90
52943;DHT22;38809;53.300;6.614;2023-02-11T06:09:51;7.00;99.90
52943;DHT22;38809;53.300;6.614;2023-02-11T06:12:17;7.00;99.90
52943;DHT22;38809;53.300;6.614;2023-02-11T06:14:43;7.40;99.90
52943;DHT22;38809;53.300;6.614;2023-02-11T06:17:08;7.60;99.90
52943;DHT22;38809;53.300;6.614;2023-02-11T06:19:34;7.30;99.90
52943;DHT22;38809;53.300;6.614;2023-02-11T06:22:00;7.20;99.90
52943;DHT22;38809;53.300;6.614;2023-02-11T06:24:26;7.00;99.90
52943;DHT22;38809;53.300;6.614;2023-02-11T06:26:51;7.10;99.90
52943;DHT22;38809;53.300;6.614;2023-02-11T06:29:17;7.20;99.90
52943;DHT22;38809;53.300;6.614;2023-02-11T06:31:43;7.90;99.90
52943;DHT22;38809;53.300;6.614;2023-02-11T06:34:09;7.10;99.90
52943;DHT22;38809;53.300;6.614;2023-02-11T06:36:37;7.00;99.90
52943;DHT22;38809;53.300;6.614;2023-02-11T06:39:03;7.00;99.90
52943;DHT22;38809;53.300;6.614;2023-02-11T06:41:30;7.00;99.90
52943;DHT22;38809;53.300;6.614;2023-02-11T06:43:55;7.10;99.90
52943;DHT22;38809;53.300;6.614;2023-02-11T06:46:21;7.00;99.90
52943;DHT22;38809;53.300;6.614;2023-02-11T06:48:47;7.50;99.90
52943;DHT22;38809;53.300;6.614;2023-02-11T06:51:13;7.10;99.90
52943;DHT22;38809;53.300;6.614;2023-02-11T06:53:45;7.10;99.90
52943;DHT22;38809;53.300;6.614;2023-02-11T06:56:20;7.10;99.90
52943;DHT22;38809;53.300;6.614;2023-02-11T06:58:46;7.30;99.90
52943;DHT22;38809;53.300;6.614;2023-02-11T07:01:14;7.10;99.90
52943;DHT22;38809;53.300;6.614;2023-02-11T07:03:41;7.10;99.90
52943;DHT22;38809;53.300;6.614;2023-02-11T07:06:10;7.30;99.90
52943;DHT22;38809;53.300;6.614;2023-02-11T07:08:37;7.20;99.90
52943;DHT22;38809;53.300;6.614;2023-02-11T07:11:14;7.30;99.90
52943;DHT22;38809;53.300;6.614;2023-02-11T07:13:41;7.20;99.90
52943;DHT22;38809;53.300;6.614;2023-02-11T07:16:09;7.10;99.90
52943;DHT22;38809;53.300;6.614;2023-02-11T07:18:35;7.10;99.90
52943;DHT22;38809;53.300;6.614;2023-02-11T07:21:09;7.30;99.90
52943;DHT22;38809;53.300;6.614;2023-02-11T07:23:35;7.50;99.90
52943;DHT22;38809;53.300;6.614;2023-02-11T07:26:05;7.20;99.90
52943;DHT22;38809;53.300;6.614;2023-02-11T07:28:33;7.20;99.90
52943;DHT22;38809;53.300;6.614;2023-02-11T07:31:14;7.20;99.90
52943;DHT22;38809;53.300;6.614;2023-02-11T07:33:41;7.40;99.90
52943;DHT22;38809;53.300;6.614;2023-02-11T07:36:07;7.30;99.90
52943;DHT22;38809;53.300;6.614;2023-02-11T07:38:34;7.20;99.90
52943;DHT22;38809;53.300;6.614;2023-02-11T07:41:01;7.60;99.90
52943;DHT22;38809;53.300;6.614;2023-02-11T07:43:27;7.40;99.90
52943;DHT22;38809;53.300;6.614;2023-02-11T07:45:53;7.50;99.90
52943;DHT22;38809;53.300;6.614;2023-02-11T07:48:19;7.30;99.90
52943;DHT22;38809;53.300;6.614;2023-02-11T07:50:45;7.30;99.90
52943;DHT22;38809;53.300;6.614;2023-02-11T07:53:11;7.20;99.90
52943;DHT22;38809;53.300;6.614;2023-02-11T07:55:36;7.30;99.90
52943;DHT22;38809;53.300;6.614;2023-02-11T07:58:02;7.30;99.90
52943;DHT22;38809;53.300;6.614;2023-02-11T08:00:28;7.40;99.90
52943;DHT22;38809;53.300;6.614;2023-02-11T08:02:56;7.40;99.90
52943;DHT22;38809;53.300;6.614;2023-02-11T08:05:21;7.30;99.90
52943;DHT22;38809;53.300;6.614;2023-02-11T08:07:53;7.70;99.90
52943;DHT22;38809;53.300;6.614;2023-02-11T08:10:19;7.40;99.90
52943;DHT22;38809;53.300;6.614;2023-02-11T08:12:45;7.50;99.90
52943;DHT22;38809;53.300;6.614;2023-02-11T08:15:10;7.40;99.90
52943;DHT22;38809;53.300;6.614;2023-02-11T08:17:36;7.80;99.90
52943;DHT22;38809;53.300;6.614;2023-02-11T08:20:03;7.50;99.90
52943;DHT22;38809;53.300;6.614;2023-02-11T08:22:33;7.50;99.90
52943;DHT22;38809;53.300;6.614;2023-02-11T08:24:59;7.60;99.90
52943;DHT22;38809;53.300;6.614;2023-02-11T08:27:26;7.70;99.90
52943;DHT22;38809;53.300;6.614;2023-02-11T08:29:52;7.60;99.90
52943;DHT22;38809;53.300;6.614;2023-02-11T08:32:18;7.60;99.90
52943;DHT22;38809;53.300;6.614;2023-02-11T08:34:43;7.80;99.90
52943;DHT22;38809;53.300;6.614;2023-02-11T08:37:09;7.70;99.90
52943;DHT22;38809;53.300;6.614;2023-02-11T08:39:35;7.70;99.90
52943;DHT22;38809;53.300;6.614;2023-02-11T08:42:00;8.10;99.90
52943;DHT22;38809;53.300;6.614;2023-02-11T08:44:26;7.70;99.90
52943;DHT22;38809;53.300;6.614;2023-02-11T08:46:52;7.90;99.90
52943;DHT22;38809;53.300;6.614;2023-02-11T08:49:18;7.70;99.90
52943;DHT22;38809;53.300;6.614;2023-02-11T08:51:45;7.70;99.90
52943;DHT22;38809;53.300;6.614;2023-02-11T08:54:11;7.90;99.90
52943;DHT22;38809;53.300;6.614;2023-02-11T08:56:37;7.80;99.90
52943;DHT22;38809;53.300;6.614;2023-02-11T08:59:04;8.00;99.90
52943;DHT22;38809;53.300;6.614;2023-02-11T09:01:30;7.90;99.90
52943;DHT22;38809;53.300;6.614;2023-02-11T09:03:56;8.00;99.90
52943;DHT22;38809;53.300;6.614;2023-02-11T09:06:23;7.90;99.90
52943;DHT22;38809;53.300;6.614;2023-02-11T09:08:51;7.80;99.90
52943;DHT22;38809;53.300;6.614;2023-02-11T09:11:20;8.00;99.90
52943;DHT22;38809;53.300;6.614;2023-02-11T09:13:46;8.10;99.90
52943;DHT22;38809;53.300;6.614;2023-02-11T09:16:24;8.00;99.90
52943;DHT22;38809;53.300;6.614;2023-02-11T09:18:50;8.10;99.90
52943;DHT22;38809;53.300;6.614;2023-02-11T09:21:17;8.20;99.90
52943;DHT22;38809;53.300;6.614;2023-02-11T09:23:44;8.20;99.90
52943;DHT22;38809;53.300;6.614;2023-02-11T09:28:40;8.40;99.90
52943;DHT22;38809;53.300;6.614;2023-02-11T09:31:22;8.30;99.90
52943;DHT22;38809;53.300;6.614;2023-02-11T09:33:51;8.40;99.90
52943;DHT22;38809;53.300;6.614;2023-02-11T09:36:26;8.40;99.90
52943;DHT22;38809;53.300;6.614;2023-02-11T09:38:53;8.60;99.90
52943;DHT22;38809;53.300;6.614;2023-02-11T09:43:54;8.60;99.90
52943;DHT22;38809;53.300;6.614;2023-02-11T09:46:21;8.60;99.90
52943;DHT22;38809;53.300;6.614;2023-02-11T09:48:51;8.70;99.90
52943;DHT22;38809;53.300;6.614;2023-02-11T09:51:38;8.80;99.90
52943;DHT22;38809;53.300;6.614;2023-02-11T09:54:34;8.80;99.90
52943;DHT22;38809;53.300;6.614;2023-02-11T09:57:01;8.90;99.90
52943;DHT22;38809;53.300;6.614;2023-02-11T09:59:27;9.00;99.90
52943;DHT22;38809;53.300;6.614;2023-02-11T10:01:58;9.00;99.90
52943;DHT22;38809;53.300;6.614;2023-02-11T10:07:55;9.00;99.90
52943;DHT22;38809;53.300;6.614;2023-02-11T10:10:50;9.00;99.90
52943;DHT22;38809;53.300;6.614;2023-02-11T10:13:37;9.20;99.90
52943;DHT22;38809;53.300;6.614;2023-02-11T10:16:34;9.10;99.90
52943;DHT22;38809;53.300;6.614;2023-02-11T10:19:42;9.10;99.90
52943;DHT22;38809;53.300;6.614;2023-02-11T10:24:54;9.30;99.90
52943;DHT22;38809;53.300;6.614;2023-02-11T10:27:34;9.30;99.90
52943;DHT22;38809;53.300;6.614;2023-02-11T10:32:51;9.30;99.90
52943;DHT22;38809;53.300;6.614;2023-02-11T10:35:21;9.40;99.90
52943;DHT22;38809;53.300;6.614;2023-02-11T10:37:47;9.40;99.90
52943;DHT22;38809;53.300;6.614;2023-02-11T10:40:18;9.40;99.90
52943;DHT22;38809;53.300;6.614;2023-02-11T10:42:48;9.50;99.90
52943;DHT22;38809;53.300;6.614;2023-02-11T10:45:47;9.50;99.90
52943;DHT22;38809;53.300;6.614;2023-02-11T10:48:52;9.70;99.90
52943;DHT22;38809;53.300;6.614;2023-02-11T10:51:32;9.70;99.90
52943;DHT22;38809;53.300;6.614;2023-02-11T10:56:46;9.70;99.90
52943;DHT22;38809;53.300;6.614;2023-02-11T10:59:27;9.80;99.90
52943;DHT22;38809;53.300;6.614;2023-02-11T11:01:57;9.80;99.90
52943;DHT22;38809;53.300;6.614;2023-02-11T11:04:36;9.80;99.90
52943;DHT22;38809;53.300;6.614;2023-02-11T11:07:21;9.80;99.90
52943;DHT22;38809;53.300;6.614;2023-02-11T11:09:54;9.80;99.90
52943;DHT22;38809;53.300;6.614;2023-02-11T11:12:31;9.80;99.90
52943;DHT22;38809;53.300;6.614;2023-02-11T11:17:30;9.90;99.90
52943;DHT22;38809;53.300;6.614;2023-02-11T11:22:41;10.00;99.90
52943;DHT22;38809;53.300;6.614;2023-02-11T11:25:41;10.00;99.90
52943;DHT22;38809;53.300;6.614;2023-02-11T11:28:19;10.10;99.90
52943;DHT22;38809;53.300;6.614;2023-02-11T11:30:46;10.10;99.90
52943;DHT22;38809;53.300;6.614;2023-02-11T11:33:20;10.10;99.90
52943;DHT22;38809;53.300;6.614;2023-02-11T11:38:34;10.10;99.90
52943;DHT22;38809;53.300;6.614;2023-02-11T11:41:39;10.10;99.90
52943;DHT22;38809;53.300;6.614;2023-02-11T11:44:32;10.10;99.90
52943;DHT22;38809;53.300;6.614;2023-02-11T11:55:19;10.20;99.90
52943;DHT22;38809;53.300;6.614;2023-02-11T11:57:46;10.00;99.90
52943;DHT22;38809;53.300;6.614;2023-02-11T12:00:49;10.10;99.90
52943;DHT22;38809;53.300;6.614;2023-02-11T12:09:51;9.90;99.90
52943;DHT22;38809;53.300;6.614;2023-02-11T12:12:22;9.90;99.90
52943;DHT22;38809;53.300;6.614;2023-02-11T12:20:18;10.00;99.90
52943;DHT22;38809;53.300;6.614;2023-02-11T12:25:29;9.90;99.90
52943;DHT22;38809;53.300;6.614;2023-02-11T12:30:51;9.90;99.90
52943;DHT22;38809;53.300;6.614;2023-02-11T12:35:53;9.90;99.90
52943;DHT22;38809;53.300;6.614;2023-02-11T12:38:24;9.90;99.90
52943;DHT22;38809;53.300;6.614;2023-02-11T12:41:21;10.00;99.90
52943;DHT22;38809;53.300;6.614;2023-02-11T12:44:18;9.90;99.90
52943;DHT22;38809;53.300;6.614;2023-02-11T12:47:07;10.00;99.90
52943;DHT22;38809;53.300;6.614;2023-02-11T12:49:49;9.90;99.90
52943;DHT22;38809;53.300;6.614;2023-02-11T12:52:39;9.90;99.90
52943;DHT22;38809;53.300;6.614;2023-02-11T12:55:21;9.90;99.90
52943;DHT22;38809;53.300;6.614;2023-02-11T12:57:48;9.80;99.90
52943;DHT22;38809;53.300;6.614;2023-02-11T13:10:46;9.80;99.90
52943;DHT22;38809;53.300;6.614;2023-02-11T13:13:22;9.80;99.90
52943;DHT22;38809;53.300;6.614;2023-02-11T13:15:53;9.70;99.90
52943;DHT22;38809;53.300;6.614;2023-02-11T13:21:21;9.60;99.90
52943;DHT22;38809;53.300;6.614;2023-02-11T13:31:55;9.60;99.90
52943;DHT22;38809;53.300;6.614;2023-02-11T13:40:02;9.70;99.90
52943;DHT22;38809;53.300;6.614;2023-02-11T13:42:30;9.60;99.90
52943;DHT22;38809;53.300;6.614;2023-02-11T13:44:57;9.70;99.90
52943;DHT22;38809;53.300;6.614;2023-02-11T13:47:31;9.60;99.90
52943;DHT22;38809;53.300;6.614;2023-02-11T13:49:58;9.70;99.90
52943;DHT22;38809;53.300;6.614;2023-02-11T13:52:28;9.70;99.90
52943;DHT22;38809;53.300;6.614;2023-02-11T13:54:58;9.60;99.90
52943;DHT22;38809;53.300;6.614;2023-02-11T13:57:31;9.60;99.90
52943;DHT22;38809;53.300;6.614;2023-02-11T14:02:30;9.60;99.90
52943;DHT22;38809;53.300;6.614;2023-02-11T14:05:22;9.50;99.90
52943;DHT22;38809;53.300;6.614;2023-02-11T14:08:14;9.50;99.90
52943;DHT22;38809;53.300;6.614;2023-02-11T14:11:04;9.40;99.90
52943;DHT22;38809;53.300;6.614;2023-02-11T14:16:19;9.30;99.90
52943;DHT22;38809;53.300;6.614;2023-02-11T14:21:19;9.30;99.90
52943;DHT22;38809;53.300;6.614;2023-02-11T14:23:48;9.30;99.90
52943;DHT22;38809;53.300;6.614;2023-02-11T14:26:26;9.40;99.90
52943;DHT22;38809;53.300;6.614;2023-02-11T14:28:59;9.30;99.90
52943;DHT22;38809;53.300;6.614;2023-02-11T14:35:30;9.40;99.90
52943;DHT22;38809;53.300;6.614;2023-02-11T14:37:32;9.30;99.90
52943;DHT22;38809;53.300;6.614;2023-02-11T14:42:46;9.40;99.90
52943;DHT22;38809;53.300;6.614;2023-02-11T14:45:19;9.50;99.90
52943;DHT22;38809;53.300;6.614;2023-02-11T14:50:49;9.50;99.90
52943;DHT22;38809;53.300;6.614;2023-02-11T14:53:23;9.50;99.90
52943;DHT22;38809;53.300;6.614;2023-02-11T14:55:52;9.60;99.90
52943;DHT22;38809;53.300;6.614;2023-02-11T14:58:21;9.50;99.90
52943;DHT22;38809;53.300;6.614;2023-02-11T15:01:00;9.60;99.90
52943;DHT22;38809;53.300;6.614;2023-02-11T15:03:33;9.50;99.90
52943;DHT22;38809;53.300;6.614;2023-02-11T15:06:11;9.50;99.90
52943;DHT22;38809;53.300;6.614;2023-02-11T15:08:47;9.50;99.90
52943;DHT22;38809;53.300;6.614;2023-02-11T15:11:16;9.40;99.90
52943;DHT22;38809;53.300;6.614;2023-02-11T15:13:42;9.40;99.90
52943;DHT22;38809;53.300;6.614;2023-02-11T15:16:12;9.20;99.90
52943;DHT22;38809;53.300;6.614;2023-02-11T15:18:46;9.20;99.90
52943;DHT22;38809;53.300;6.614;2023-02-11T15:21:19;9.20;99.90
52943;DHT22;38809;53.300;6.614;2023-02-11T15:24:19;9.20;99.90
52943;DHT22;38809;53.300;6.614;2023-02-11T15:26:40;9.20;99.90
52943;DHT22;38809;53.300;6.614;2023-02-11T15:29:17;9.20;99.90
52943;DHT22;38809;53.300;6.614;2023-02-11T15:31:42;9.10;99.90
52943;DHT22;38809;53.300;6.614;2023-02-11T15:34:08;9.20;99.90
52943;DHT22;38809;53.300;6.614;2023-02-11T15:36:34;9.10;99.90
52943;DHT22;38809;53.300;6.614;2023-02-11T15:39:29;9.00;99.90
52943;DHT22;38809;53.300;6.614;2023-02-11T15:41:56;8.90;99.90
52943;DHT22;38809;53.300;6.614;2023-02-11T15:44:39;9.10;99.90
52943;DHT22;38809;53.300;6.614;2023-02-11T15:47:11;9.00;99.90
52943;DHT22;38809;53.300;6.614;2023-02-11T15:49:43;9.00;99.90
52943;DHT22;38809;53.300;6.614;2023-02-11T15:52:09;8.90;99.90
52943;DHT22;38809;53.300;6.614;2023-02-11T15:54:36;9.00;99.90
52943;DHT22;38809;53.300;6.614;2023-02-11T15:57:04;8.90;99.90
52943;DHT22;38809;53.300;6.614;2023-02-11T15:59:37;9.00;99.90
52943;DHT22;38809;53.300;6.614;2023-02-11T16:02:07;8.80;99.90
52943;DHT22;38809;53.300;6.614;2023-02-11T16:04:34;8.80;99.90
52943;DHT22;38809;53.300;6.614;2023-02-11T16:07:00;8.80;99.90
52943;DHT22;38809;53.300;6.614;2023-02-11T16:09:30;8.80;99.90
52943;DHT22;38809;53.300;6.614;2023-02-11T16:11:59;8.80;99.90
52943;DHT22;38809;53.300;6.614;2023-02-11T16:17:09;8.90;99.90
52943;DHT22;38809;53.300;6.614;2023-02-11T16:19:45;8.70;99.90
52943;DHT22;38809;53.300;6.614;2023-02-11T16:22:17;8.70;99.90
52943;DHT22;38809;53.300;6.614;2023-02-11T16:24:46;8.70;99.90
52943;DHT22;38809;53.300;6.614;2023-02-11T16:27:17;9.20;99.90
52943;DHT22;38809;53.300;6.614;2023-02-11T16:29:46;8.70;99.90
52943;DHT22;38809;53.300;6.614;2023-02-11T16:32:16;8.70;99.90
52943;DHT22;38809;53.300;6.614;2023-02-11T16:34:42;8.60;99.90
52943;DHT22;38809;53.300;6.614;2023-02-11T16:37:08;8.70;99.90
52943;DHT22;38809;53.300;6.614;2023-02-11T16:39:34;9.30;99.90
52943;DHT22;38809;53.300;6.614;2023-02-11T16:42:00;8.50;99.90
52943;DHT22;38809;53.300;6.614;2023-02-11T16:44:26;8.50;99.90
52943;DHT22;38809;53.300;6.614;2023-02-11T16:46:52;8.90;99.90
52943;DHT22;38809;53.300;6.614;2023-02-11T16:51:47;8.60;99.90
52943;DHT22;38809;53.300;6.614;2023-02-11T16:54:15;8.50;99.90
52943;DHT22;38809;53.300;6.614;2023-02-11T16:56:41;8.60;99.90
52943;DHT22;38809;53.300;6.614;2023-02-11T16:59:06;8.50;99.90
52943;DHT22;38809;53.300;6.614;2023-02-11T17:01:32;8.40;99.90
52943;DHT22;38809;53.300;6.614;2023-02-11T17:03:59;8.50;99.90
52943;DHT22;38809;53.300;6.614;2023-02-11T17:06:26;8.50;99.90
52943;DHT22;38809;53.300;6.614;2023-02-11T17:08:52;8.50;99.90
52943;DHT22;38809;53.300;6.614;2023-02-11T17:11:18;8.50;99.90
52943;DHT22;38809;53.300;6.614;2023-02-11T17:13:44;8.40;99.90
52943;DHT22;38809;53.300;6.614;2023-02-11T17:16:21;8.50;99.90
52943;DHT22;38809;53.300;6.614;2023-02-11T17:18:47;8.50;99.90
52943;DHT22;38809;53.300;6.614;2023-02-11T17:21:13;8.40;99.90
52943;DHT22;38809;53.300;6.614;2023-02-11T17:23:39;8.50;99.90
52943;DHT22;38809;53.300;6.614;2023-02-11T17:26:06;8.50;99.90
52943;DHT22;38809;53.300;6.614;2023-02-11T17:28:32;8.40;99.90
52943;DHT22;38809;53.300;6.614;2023-02-11T17:30:58;8.50;99.90
52943;DHT22;38809;53.300;6.614;2023-02-11T17:33:24;8.40;99.90
52943;DHT22;38809;53.300;6.614;2023-02-11T17:35:50;8.40;99.90
52943;DHT22;38809;53.300;6.614;2023-02-11T17:38:16;8.40;99.90
52943;DHT22;38809;53.300;6.614;2023-02-11T17:40:42;8.40;99.90
52943;DHT22;38809;53.300;6.614;2023-02-11T17:43:07;8.40;99.90
52943;DHT22;38809;53.300;6.614;2023-02-11T17:45:33;8.30;99.90
52943;DHT22;38809;53.300;6.614;2023-02-11T17:48:00;8.40;99.90
52943;DHT22;38809;53.300;6.614;2023-02-11T17:50:26;8.30;99.90
52943;DHT22;38809;53.300;6.614;2023-02-11T17:52:51;8.30;99.90
52943;DHT22;38809;53.300;6.614;2023-02-11T17:55:18;8.30;99.90
52943;DHT22;38809;53.300;6.614;2023-02-11T17:57:43;8.40;99.90
52943;DHT22;38809;53.300;6.614;2023-02-11T18:00:09;8.30;99.90
52943;DHT22;38809;53.300;6.614;2023-02-11T18:02:35;8.20;99.90
52943;DHT22;38809;53.300;6.614;2023-02-11T18:05:01;8.20;99.90
52943;DHT22;38809;53.300;6.614;2023-02-11T18:07:26;8.20;99.90
52943;DHT22;38809;53.300;6.614;2023-02-11T18:09:52;8.30;99.90
52943;DHT22;38809;53.300;6.614;2023-02-11T18:12:18;8.30;99.90
52943;DHT22;38809;53.300;6.614;2023-02-11T18:14:52;8.10;99.90
52943;DHT22;38809;53.300;6.614;2023-02-11T18:17:21;8.00;99.90
52943;DHT22;38809;53.300;6.614;2023-02-11T18:19:48;8.20;99.90
52943;DHT22;38809;53.300;6.614;2023-02-11T18:22:14;8.20;99.90
52943;DHT22;38809;53.300;6.614;2023-02-11T18:24:40;8.10;99.90